Time;durP1;ratioP1;P1;durP2;ratioP2;P2;SDS_P1;SDS_P2;PMS_P1;PMS_P2;Temp;Humidity;BMP_temperature;BMP_pressure;BME280_temperature;BME280_humidity;BME280_pressure;Samples;Min_cycle;Max_cycle;Signal;HPM_P1;HPM_P2
2024/03/27 00:00:33;;;;;;;0.10;0.10;;;;;;;;;;5014753;28;20113;-87
2024/03/27 00:02:59;;;;;;;0.10;0.10;;;;;;;;;;4998580;28;20125;-86
2024/03/27 00:05:25;;;;;;;0.10;0.10;;;;;;;;;;4998436;28;20116;-87
2024/03/27 00:07:51;;;;;;;0.10;0.10;;;;;;;;;;4998819;28;20045;-86
2024/03/27 00:10:17;;;;;;;0.15;0.15;;;;;;;;;;5014572;28;20046;-87
2024/03/27 00:12:43;;;;;;;0.20;0.20;;;;;;;;;;4998384;28;20042;-88
2024/03/27 00:15:09;;;;;;;0.10;0.10;;;;;;;;;;5015055;28;20041;-87
2024/03/27 00:17:35;;;;;;;0.20;0.20;;;;;;;;;;5014617;28;20041;-87
2024/03/27 00:20:02;;;;;;;0.10;0.10;;;;;;;;;;5014461;28;20178;-87
2024/03/27 00:22:28;;;;;;;0.10;0.10;;;;;;;;;;5014406;28;20045;-87
2024/03/27 00:24:54;;;;;;;0.10;0.10;;;;;;;;;;5014319;28;20042;-86
2024/03/27 00:27:20;;;;;;;0.20;0.20;;;;;;;;;;5014314;28;20049;-87
2024/03/27 00:29:46;;;;;;;0.10;0.10;;;;;;;;;;4998089;28;20041;-86
2024/03/27 00:32:12;;;;;;;0.20;0.20;;;;;;;;;;5014367;28;20048;-87
2024/03/27 00:34:38;;;;;;;0.10;0.10;;;;;;;;;;5014004;28;20482;-87
2024/03/27 00:37:06;;;;;;;0.15;0.15;;;;;;;;;;4998032;28;20042;-87
2024/03/27 00:39:32;;;;;;;0.30;0.30;;;;;;;;;;5014496;28;20133;-86
2024/03/27 00:41:59;;;;;;;0.10;0.10;;;;;;;;;;4997791;28;20077;-86
2024/03/27 00:44:26;;;;;;;0.43;0.20;;;;;;;;;;5015299;28;20042;-86
2024/03/27 00:46:52;;;;;;;0.20;0.20;;;;;;;;;;5014092;28;20042;-86
2024/03/27 00:49:18;;;;;;;0.60;0.20;;;;;;;;;;5013778;28;20053;-87
2024/03/27 00:51:44;;;;;;;0.10;0.10;;;;;;;;;;5013959;28;20552;-86
2024/03/27 00:54:10;;;;;;;0.40;0.40;;;;;;;;;;4997832;28;20060;-87
2024/03/27 00:56:37;;;;;;;0.20;0.20;;;;;;;;;;4997487;28;20061;-86
2024/03/27 00:59:03;;;;;;;0.10;0.10;;;;;;;;;;4997650;28;20074;-86
2024/03/27 01:01:30;;;;;;;0.10;0.10;;;;;;;;;;4997453;28;20092;-86
2024/03/27 01:03:56;;;;;;;0.10;0.10;;;;;;;;;;4997347;28;20050;-87
2024/03/27 01:06:23;;;;;;;0.10;0.10;;;;;;;;;;4997417;28;20084;-86
2024/03/27 01:08:49;;;;;;;0.17;0.17;;;;;;;;;;4997225;28;20041;-87
2024/03/27 01:11:14;;;;;;;0.13;0.13;;;;;;;;;;5013586;28;20501;-85
2024/03/27 01:13:41;;;;;;;0.10;0.10;;;;;;;;;;5013822;28;20046;-86
2024/03/27 01:16:07;;;;;;;0.35;0.35;;;;;;;;;;5013409;28;20042;-85
2024/03/27 01:18:33;;;;;;;0.25;0.25;;;;;;;;;;5013395;28;20592;-86
2024/03/27 01:20:59;;;;;;;0.28;0.28;;;;;;;;;;5013299;28;20053;-86
2024/03/27 01:23:25;;;;;;;0.10;0.10;;;;;;;;;;5013405;28;20049;-86
2024/03/27 01:25:50;;;;;;;0.20;0.20;;;;;;;;;;5013328;28;20084;-87
2024/03/27 01:28:16;;;;;;;0.10;0.10;;;;;;;;;;5013365;28;20361;-86
2024/03/27 01:30:42;;;;;;;0.17;0.17;;;;;;;;;;4996985;28;20037;-85
2024/03/27 01:33:08;;;;;;;0.10;0.10;;;;;;;;;;5013217;28;20462;-86
2024/03/27 01:35:34;;;;;;;0.10;0.10;;;;;;;;;;4997125;28;20038;-87
2024/03/27 01:38:00;;;;;;;0.30;0.30;;;;;;;;;;4996663;28;20060;-87
2024/03/27 01:40:26;;;;;;;0.10;0.10;;;;;;;;;;5012864;28;20415;-87
2024/03/27 01:42:59;;;;;;;0.20;0.20;;;;;;;;;;4996723;28;20053;-87
2024/03/27 01:45:25;;;;;;;;;;;;;;;;;;5013295;28;20121;-85
2024/03/27 01:47:51;;;;;;;0.10;0.10;;;;;;;;;;5012556;28;20010;-86
2024/03/27 01:50:17;;;;;;;0.10;0.10;;;;;;;;;;4996637;28;20042;-86
2024/03/27 01:52:44;;;;;;;0.57;0.38;;;;;;;;;;4996371;28;20580;-86
2024/03/27 01:55:10;;;;;;;0.10;0.10;;;;;;;;;;5012620;28;20104;-85
2024/03/27 01:57:37;;;;;;;0.20;0.20;;;;;;;;;;4996628;28;20053;-86
2024/03/27 02:00:04;;;;;;;0.10;0.10;;;;;;;;;;4996289;28;20061;-86
2024/03/27 02:02:30;;;;;;;0.10;0.10;;;;;;;;;;5012751;28;20064;-86
2024/03/27 02:04:56;;;;;;;0.60;0.30;;;;;;;;;;5012516;28;20046;-86
2024/03/27 02:07:22;;;;;;;0.10;0.10;;;;;;;;;;5012254;28;20045;-87
2024/03/27 02:09:48;;;;;;;0.22;0.22;;;;;;;;;;5012595;28;20478;-86
2024/03/27 02:12:14;;;;;;;0.20;0.20;;;;;;;;;;4995950;28;20061;-86
2024/03/27 02:14:40;;;;;;;0.10;0.10;;;;;;;;;;4996070;28;20505;-87
2024/03/27 02:17:06;;;;;;;0.10;0.10;;;;;;;;;;4996286;28;20045;-86
2024/03/27 02:19:32;;;;;;;0.15;0.15;;;;;;;;;;5012914;28;20129;-86
2024/03/27 02:21:57;;;;;;;1.85;0.40;;;;;;;;;;5012160;28;20095;-87
2024/03/27 02:24:25;;;;;;;0.30;0.30;;;;;;;;;;4995844;28;20049;-86
2024/03/27 02:26:51;;;;;;;0.20;0.20;;;;;;;;;;5012223;28;20049;-86
2024/03/27 02:29:17;;;;;;;0.10;0.10;;;;;;;;;;4995880;28;20041;-87
2024/03/27 02:31:43;;;;;;;0.10;0.10;;;;;;;;;;5012180;28;20065;-87
2024/03/27 02:34:09;;;;;;;0.10;0.10;;;;;;;;;;5011951;28;20595;-86
2024/03/27 02:36:35;;;;;;;0.10;0.10;;;;;;;;;;4995711;28;20051;-87
2024/03/27 02:39:01;;;;;;;0.10;0.10;;;;;;;;;;4995714;28;20129;-86
2024/03/27 02:41:26;;;;;;;0.10;0.10;;;;;;;;;;5011774;28;20129;-87
2024/03/27 02:43:54;;;;;;;0.10;0.10;;;;;;;;;;4995554;28;20078;-86
2024/03/27 02:46:20;;;;;;;0.15;0.15;;;;;;;;;;5011858;28;20049;-86
2024/03/27 02:48:46;;;;;;;0.10;0.10;;;;;;;;;;5011534;28;20054;-87
2024/03/27 02:51:12;;;;;;;0.10;0.10;;;;;;;;;;5011578;28;20041;-87
2024/03/27 02:53:38;;;;;;;0.10;0.10;;;;;;;;;;5011978;28;20042;-87
2024/03/27 02:56:04;;;;;;;0.20;0.20;;;;;;;;;;5011833;28;20121;-87
2024/03/27 02:58:30;;;;;;;0.38;0.38;;;;;;;;;;5011572;28;20124;-86
2024/03/27 03:00:56;;;;;;;0.20;0.20;;;;;;;;;;5011687;28;20128;-87
2024/03/27 03:03:22;;;;;;;1.13;0.20;;;;;;;;;;4995199;28;20500;-86
2024/03/27 03:05:48;;;;;;;0.10;0.10;;;;;;;;;;5011441;28;20104;-86
2024/03/27 03:08:14;;;;;;;0.20;0.20;;;;;;;;;;5011505;28;20041;-87
2024/03/27 03:10:40;;;;;;;0.10;0.10;;;;;;;;;;5011322;28;20099;-87
2024/03/27 03:13:06;;;;;;;0.20;0.20;;;;;;;;;;5011643;28;20049;-87
2024/03/27 03:15:32;;;;;;;0.10;0.10;;;;;;;;;;5011321;28;20115;-86
2024/03/27 03:17:58;;;;;;;0.10;0.10;;;;;;;;;;5010529;28;20046;-87
2024/03/27 03:20:23;;;;;;;0.20;0.20;;;;;;;;;;5011427;28;20207;-86
2024/03/27 03:22:53;;;;;;;0.17;0.17;;;;;;;;;;4995209;28;20045;-88
2024/03/27 03:25:19;;;;;;;0.10;0.10;;;;;;;;;;5011171;28;20050;-87
2024/03/27 03:27:45;;;;;;;0.10;0.10;;;;;;;;;;5011165;28;20044;-86
2024/03/27 03:30:12;;;;;;;0.10;0.10;;;;;;;;;;5011366;28;20497;-86
2024/03/27 03:32:37;;;;;;;0.20;0.20;;;;;;;;;;4994805;28;20056;-86
2024/03/27 03:35:04;;;;;;;0.20;0.20;;;;;;;;;;4994920;28;20129;-86
2024/03/27 03:37:31;;;;;;;0.20;0.20;;;;;;;;;;5011039;28;20159;-86
2024/03/27 03:39:57;;;;;;;0.20;0.20;;;;;;;;;;5012309;28;20046;-86
2024/03/27 03:42:23;;;;;;;0.10;0.10;;;;;;;;;;4994907;28;20092;-86
2024/03/27 03:44:49;;;;;;;0.65;0.20;;;;;;;;;;5010938;28;20042;-86
2024/03/27 03:47:15;;;;;;;0.40;0.40;;;;;;;;;;4994500;28;20097;-86
2024/03/27 03:49:41;;;;;;;0.10;0.10;;;;;;;;;;5011199;28;20078;-87
2024/03/27 03:52:07;;;;;;;1.33;1.33;;;;;;;;;;5010849;28;20045;-87
2024/03/27 03:54:33;;;;;;;0.10;0.10;;;;;;;;;;5011139;28;20065;-92
2024/03/27 03:56:59;;;;;;;0.10;0.10;;;;;;;;;;4995402;28;20049;-87
2024/03/27 03:59:25;;;;;;;0.20;0.20;;;;;;;;;;5011340;28;20050;-87
2024/03/27 04:01:51;;;;;;;0.20;0.20;;;;;;;;;;4994546;28;20124;-86
2024/03/27 04:04:17;;;;;;;0.20;0.20;;;;;;;;;;5010632;28;20049;-86
2024/03/27 04:06:43;;;;;;;0.10;0.10;;;;;;;;;;5010855;28;20053;-86
2024/03/27 04:09:09;;;;;;;0.20;0.20;;;;;;;;;;5010808;28;20045;-86
2024/03/27 04:11:35;;;;;;;0.43;0.35;;;;;;;;;;5010871;28;20402;-86
2024/03/27 04:14:01;;;;;;;0.10;0.10;;;;;;;;;;5010723;28;20046;-87
2024/03/27 04:16:27;;;;;;;0.10;0.10;;;;;;;;;;4994713;28;20046;-86
2024/03/27 04:18:53;;;;;;;0.30;0.30;;;;;;;;;;4994564;28;20085;-86
2024/03/27 04:21:19;;;;;;;0.20;0.20;;;;;;;;;;5010872;28;20133;-87
2024/03/27 04:23:45;;;;;;;0.43;0.43;;;;;;;;;;5010564;28;20041;-86
2024/03/27 04:26:11;;;;;;;0.17;0.17;;;;;;;;;;4994810;28;20048;-87
2024/03/27 04:28:37;;;;;;;0.17;0.17;;;;;;;;;;5010640;28;20121;-87
2024/03/27 04:31:03;;;;;;;0.20;0.20;;;;;;;;;;5013768;28;20373;-87
2024/03/27 04:33:30;;;;;;;0.20;0.20;;;;;;;;;;5014352;28;20056;-87
2024/03/27 04:35:56;;;;;;;0.28;0.20;;;;;;;;;;4998153;28;20038;-87
2024/03/27 04:38:21;;;;;;;0.10;0.10;;;;;;;;;;5014169;28;20045;-87
2024/03/27 04:40:47;;;;;;;0.15;0.15;;;;;;;;;;5014051;28;20064;-86
2024/03/27 04:43:13;;;;;;;1.85;1.65;;;;;;;;;;5014439;28;20192;-86
2024/03/27 04:45:40;;;;;;;0.10;0.10;;;;;;;;;;4997780;28;20042;-86
2024/03/27 04:48:06;;;;;;;0.17;0.17;;;;;;;;;;5013965;28;20054;-87
2024/03/27 04:50:32;;;;;;;0.20;0.20;;;;;;;;;;5014226;28;20127;-87
2024/03/27 04:52:58;;;;;;;0.10;0.10;;;;;;;;;;4998130;28;20069;-87
2024/03/27 04:55:24;;;;;;;0.10;0.10;;;;;;;;;;4997645;28;20490;-87
2024/03/27 04:57:50;;;;;;;0.10;0.10;;;;;;;;;;5014429;28;20050;-87
2024/03/27 05:00:16;;;;;;;0.30;0.30;;;;;;;;;;5013486;28;20053;-87
2024/03/27 05:02:42;;;;;;;0.10;0.10;;;;;;;;;;5013646;28;20045;-87
2024/03/27 05:05:08;;;;;;;0.10;0.10;;;;;;;;;;5013570;28;20046;-88
2024/03/27 05:07:35;;;;;;;0.15;0.15;;;;;;;;;;5013509;28;20033;-88
2024/03/27 05:10:01;;;;;;;0.10;0.10;;;;;;;;;;4997647;28;20382;-86
2024/03/27 05:12:27;;;;;;;0.10;0.10;;;;;;;;;;4997323;28;20088;-86
2024/03/27 05:14:53;;;;;;;0.10;0.10;;;;;;;;;;5013337;28;20497;-87
2024/03/27 05:17:19;;;;;;;0.10;0.10;;;;;;;;;;4997392;28;20112;-87
2024/03/27 05:19:49;;;;;;;0.10;0.10;;;;;;;;;;4997302;28;20056;-88
2024/03/27 05:22:18;;;;;;;0.28;0.28;;;;;;;;;;5013743;28;20053;-88
2024/03/27 05:24:43;;;;;;;0.10;0.10;;;;;;;;;;5013440;28;20085;-88
2024/03/27 05:27:09;;;;;;;0.10;0.10;;;;;;;;;;5029835;28;20053;-88
2024/03/27 05:29:35;;;;;;;0.10;0.10;;;;;;;;;;4997349;28;20152;-88
2024/03/27 05:32:02;;;;;;;0.10;0.10;;;;;;;;;;4997396;28;20683;-87
2024/03/27 05:34:27;;;;;;;0.28;0.28;;;;;;;;;;4997564;28;20431;-88
2024/03/27 05:36:54;;;;;;;0.10;0.10;;;;;;;;;;5013105;28;20065;-88
2024/03/27 05:39:19;;;;;;;0.20;0.20;;;;;;;;;;5013216;28;20046;-88
2024/03/27 05:41:46;;;;;;;0.10;0.10;;;;;;;;;;4996065;28;20069;-87
2024/03/27 05:44:12;;;;;;;0.10;0.10;;;;;;;;;;5013120;28;20049;-88
2024/03/27 05:46:38;;;;;;;0.10;0.10;;;;;;;;;;5013064;28;20057;-88
2024/03/27 05:49:04;;;;;;;0.10;0.10;;;;;;;;;;4996574;28;20113;-87
2024/03/27 05:51:31;;;;;;;0.10;0.10;;;;;;;;;;4996789;28;20046;-88
2024/03/27 05:53:57;;;;;;;0.20;0.20;;;;;;;;;;4996614;28;20041;-87
2024/03/27 05:56:23;;;;;;;0.10;0.10;;;;;;;;;;4996855;28;20065;-88
2024/03/27 05:58:49;;;;;;;0.20;0.20;;;;;;;;;;5012841;28;20041;-88
2024/03/27 06:01:15;;;;;;;0.10;0.10;;;;;;;;;;4996538;28;20045;-88
2024/03/27 06:03:44;;;;;;;0.20;0.20;;;;;;;;;;4996306;28;20434;-88
2024/03/27 06:06:10;;;;;;;0.10;0.10;;;;;;;;;;4996649;28;20128;-88
2024/03/27 06:08:36;;;;;;;0.20;0.20;;;;;;;;;;5012719;28;20045;-86
2024/03/27 06:11:02;;;;;;;0.10;0.10;;;;;;;;;;5012621;28;20038;-88
2024/03/27 06:13:30;;;;;;;0.13;0.13;;;;;;;;;;4996266;28;20042;-89
2024/03/27 06:15:56;;;;;;;0.10;0.10;;;;;;;;;;5012556;28;20053;-90
2024/03/27 06:18:22;;;;;;;0.10;0.10;;;;;;;;;;5013889;28;20406;-89
2024/03/27 06:20:48;;;;;;;0.20;0.20;;;;;;;;;;5013110;28;20038;-90
2024/03/27 06:23:14;;;;;;;0.25;0.13;;;;;;;;;;5013144;28;20038;-88
2024/03/27 06:25:41;;;;;;;0.20;0.20;;;;;;;;;;5012527;28;20103;-89
2024/03/27 06:28:07;;;;;;;0.10;0.10;;;;;;;;;;4996293;28;20080;-89
2024/03/27 06:30:38;;;;;;;0.17;0.17;;;;;;;;;;5012524;28;20045;-88
2024/03/27 06:33:04;;;;;;;0.20;0.20;;;;;;;;;;4996863;28;20048;-89
2024/03/27 06:35:32;;;;;;;0.10;0.10;;;;;;;;;;5012721;28;20477;-90
2024/03/27 06:37:58;;;;;;;0.10;0.10;;;;;;;;;;5012675;28;20038;-89
2024/03/27 06:40:24;;;;;;;0.10;0.10;;;;;;;;;;5012215;28;20049;-89
2024/03/27 06:42:50;;;;;;;0.10;0.10;;;;;;;;;;4995910;28;20132;-88
2024/03/27 06:45:16;;;;;;;0.10;0.10;;;;;;;;;;4995757;28;20112;-88
2024/03/27 06:47:43;;;;;;;0.10;0.10;;;;;;;;;;5011690;28;20497;-89
2024/03/27 06:50:10;;;;;;;0.10;0.10;;;;;;;;;;4995987;28;20053;-88
2024/03/27 06:52:36;;;;;;;0.13;0.13;;;;;;;;;;5011710;28;20489;-90
2024/03/27 06:55:03;;;;;;;0.10;0.10;;;;;;;;;;4996175;28;20397;-87
2024/03/27 06:57:29;;;;;;;0.10;0.10;;;;;;;;;;5012170;28;20041;-89
2024/03/27 06:59:55;;;;;;;0.10;0.10;;;;;;;;;;4995891;28;20049;-89
2024/03/27 07:02:21;;;;;;;0.20;0.20;;;;;;;;;;4995609;28;20072;-89
2024/03/27 07:04:47;;;;;;;0.10;0.10;;;;;;;;;;4995516;28;20125;-89
2024/03/27 07:07:13;;;;;;;0.10;0.10;;;;;;;;;;4995344;28;20481;-89
2024/03/27 07:09:39;;;;;;;0.10;0.10;;;;;;;;;;5011984;28;20120;-89
2024/03/27 07:12:05;;;;;;;0.10;0.10;;;;;;;;;;5011662;28;20492;-89
2024/03/27 07:14:31;;;;;;;0.50;0.50;;;;;;;;;;4995225;28;20099;-88
2024/03/27 07:16:56;;;;;;;0.20;0.20;;;;;;;;;;4995266;28;20449;-87
2024/03/27 07:19:23;;;;;;;0.10;0.10;;;;;;;;;;5011615;28;20206;-89
2024/03/27 07:21:49;;;;;;;0.10;0.10;;;;;;;;;;4995110;28;20071;-89
2024/03/27 07:24:15;;;;;;;0.10;0.10;;;;;;;;;;4995223;28;20138;-89
2024/03/27 07:26:43;;;;;;;0.10;0.10;;;;;;;;;;5011405;28;20034;-89
2024/03/27 07:29:09;;;;;;;0.85;0.20;;;;;;;;;;4994931;28;20052;-89
2024/03/27 07:31:35;;;;;;;0.10;0.10;;;;;;;;;;5010955;28;20106;-85
2024/03/27 07:34:03;;;;;;;0.20;0.20;;;;;;;;;;4994400;28;20045;-86
2024/03/27 07:36:29;;;;;;;0.40;0.40;;;;;;;;;;5010549;28;20073;-86
2024/03/27 07:38:55;;;;;;;0.35;0.35;;;;;;;;;;5010855;28;20147;-86
2024/03/27 07:41:22;;;;;;;0.20;0.20;;;;;;;;;;4994355;28;20486;-86
2024/03/27 07:43:48;;;;;;;0.10;0.10;;;;;;;;;;5017435;28;20167;-88
2024/03/27 07:46:15;;;;;;;0.10;0.10;;;;;;;;;;5013879;28;20116;-90
2024/03/27 07:48:41;;;;;;;0.10;0.10;;;;;;;;;;4995490;28;20049;-87
2024/03/27 07:51:07;;;;;;;0.10;0.10;;;;;;;;;;5029894;28;20079;-86
2024/03/27 07:53:32;;;;;;;0.10;0.10;;;;;;;;;;5013712;28;20056;-86
2024/03/27 07:56:01;;;;;;;0.10;0.10;;;;;;;;;;5013726;28;20119;-85
2024/03/27 07:58:27;;;;;;;0.60;0.60;;;;;;;;;;5030044;28;20342;-87
2024/03/27 08:00:53;;;;;;;0.10;0.10;;;;;;;;;;5013690;28;20136;-86
2024/03/27 08:03:19;;;;;;;0.20;0.20;;;;;;;;;;5013814;28;20128;-86
2024/03/27 08:05:45;;;;;;;1.35;0.40;;;;;;;;;;5000358;28;20045;-85
2024/03/27 08:08:11;;;;;;;0.22;0.22;;;;;;;;;;5001243;28;20037;-86
2024/03/27 08:10:43;;;;;;;0.10;0.10;;;;;;;;;;5017714;28;20038;-87
2024/03/27 08:13:09;;;;;;;0.13;0.13;;;;;;;;;;5034107;28;20555;-87
2024/03/27 08:15:38;;;;;;;0.10;0.10;;;;;;;;;;5035218;28;20080;-87
2024/03/27 08:18:04;;;;;;;0.10;0.10;;;;;;;;;;5017616;28;20045;-86
2024/03/27 08:20:31;;;;;;;0.20;0.20;;;;;;;;;;5017580;28;20041;-86
2024/03/27 08:22:57;;;;;;;0.43;0.35;;;;;;;;;;5017247;28;20045;-85
2024/03/27 08:25:23;;;;;;;0.20;0.20;;;;;;;;;;5017323;28;20425;-84
2024/03/27 08:27:48;;;;;;;0.10;0.10;;;;;;;;;;5033653;28;20046;-86
2024/03/27 08:30:14;;;;;;;0.20;0.20;;;;;;;;;;5017341;28;20119;-86
2024/03/27 08:32:40;;;;;;;0.15;0.15;;;;;;;;;;5033668;28;20138;-85
2024/03/27 08:35:07;;;;;;;0.10;0.10;;;;;;;;;;5035209;28;20092;-86
2024/03/27 08:37:33;;;;;;;0.10;0.10;;;;;;;;;;5000865;28;20457;-87
2024/03/27 08:39:59;;;;;;;0.10;0.10;;;;;;;;;;5017393;28;20048;-84
2024/03/27 08:42:25;;;;;;;0.20;0.20;;;;;;;;;;5033998;28;20049;-85
2024/03/27 08:44:53;;;;;;;0.10;0.10;;;;;;;;;;5033579;28;20095;-84
2024/03/27 08:47:19;;;;;;;0.32;0.30;;;;;;;;;;5033503;28;20061;-85
2024/03/27 08:49:45;;;;;;;0.10;0.10;;;;;;;;;;5017347;28;20049;-84
2024/03/27 08:52:11;;;;;;;0.20;0.20;;;;;;;;;;5001036;28;20045;-82
2024/03/27 08:54:37;;;;;;;0.10;0.10;;;;;;;;;;5017214;28;20056;-84
2024/03/27 08:57:03;;;;;;;0.20;0.20;;;;;;;;;;5033544;28;20427;-84
2024/03/27 08:59:29;;;;;;;0.10;0.10;;;;;;;;;;5001021;28;20045;-86
2024/03/27 09:01:55;;;;;;;0.10;0.10;;;;;;;;;;4999292;28;20056;-84
2024/03/27 09:04:21;;;;;;;0.20;0.20;;;;;;;;;;5032924;28;20041;-84
2024/03/27 09:06:47;;;;;;;0.20;0.20;;;;;;;;;;5033630;28;20041;-87
2024/03/27 09:09:14;;;;;;;0.17;0.17;;;;;;;;;;5033765;28;20393;-83
2024/03/27 09:11:40;;;;;;;0.43;0.30;;;;;;;;;;5017166;28;20077;-84
2024/03/27 09:14:06;;;;;;;0.20;0.20;;;;;;;;;;5016712;28;20049;-84
2024/03/27 09:16:32;;;;;;;1.67;0.30;;;;;;;;;;5015451;28;20060;-84
2024/03/27 09:18:58;;;;;;;0.65;0.20;;;;;;;;;;5016742;28;20053;-84
2024/03/27 09:21:24;;;;;;;0.20;0.20;;;;;;;;;;5032953;28;20520;-83
2024/03/27 09:23:50;;;;;;;0.10;0.10;;;;;;;;;;5034412;28;20041;-83
2024/03/27 09:26:16;;;;;;;0.10;0.10;;;;;;;;;;5016638;28;20374;-83
2024/03/27 09:28:42;;;;;;;0.10;0.10;;;;;;;;;;5032998;28;20044;-85
2024/03/27 09:31:08;;;;;;;0.10;0.10;;;;;;;;;;5016576;28;20389;-85
2024/03/27 09:33:34;;;;;;;0.25;0.25;;;;;;;;;;5000106;28;20029;-85
2024/03/27 09:36:00;;;;;;;0.40;0.40;;;;;;;;;;5016296;28;20103;-84
2024/03/27 09:38:26;;;;;;;0.20;0.20;;;;;;;;;;5032775;28;20474;-85
2024/03/27 09:40:55;;;;;;;0.10;0.10;;;;;;;;;;5032667;28;20076;-85
2024/03/27 09:43:21;;;;;;;0.10;0.10;;;;;;;;;;5032661;28;20038;-83
2024/03/27 09:45:47;;;;;;;0.13;0.13;;;;;;;;;;5016120;28;20083;-83
2024/03/27 09:48:13;;;;;;;0.10;0.10;;;;;;;;;;5032798;28;20053;-83
2024/03/27 09:50:39;;;;;;;0.20;0.20;;;;;;;;;;5032584;28;20497;-85
2024/03/27 09:53:06;;;;;;;0.20;0.20;;;;;;;;;;5000036;28;20064;-84
2024/03/27 09:55:33;;;;;;;0.10;0.10;;;;;;;;;;5016189;28;20045;-83
2024/03/27 09:57:59;;;;;;;0.10;0.10;;;;;;;;;;4999828;28;20041;-84
2024/03/27 10:00:28;;;;;;;0.10;0.10;;;;;;;;;;5015897;28;20049;-82
2024/03/27 10:02:54;;;;;;;0.20;0.20;;;;;;;;;;5015685;28;20099;-84
2024/03/27 10:05:23;;;;;;;0.30;0.30;;;;;;;;;;5015733;28;20124;-84
2024/03/27 10:07:49;;;;;;;0.10;0.10;;;;;;;;;;5000079;28;20044;-84
2024/03/27 10:10:15;;;;;;;0.10;0.10;;;;;;;;;;5015933;28;20042;-83
2024/03/27 10:12:42;;;;;;;0.28;0.28;;;;;;;;;;5015772;28;20044;-91
2024/03/27 10:15:09;;;;;;;0.10;0.10;;;;;;;;;;5016187;28;20045;-84
2024/03/27 10:17:35;;;;;;;0.30;0.30;;;;;;;;;;5032097;28;20132;-85
2024/03/27 10:20:01;;;;;;;0.10;0.10;;;;;;;;;;5031976;28;20040;-85
2024/03/27 10:22:29;;;;;;;0.35;0.35;;;;;;;;;;5015647;28;20037;-85
2024/03/27 10:24:55;;;;;;;0.10;0.10;;;;;;;;;;5015732;28;20048;-85
2024/03/27 10:27:21;;;;;;;0.98;0.20;;;;;;;;;;5031743;28;20432;-85
2024/03/27 10:29:47;;;;;;;0.40;0.40;;;;;;;;;;5015451;28;20033;-84
2024/03/27 10:32:13;;;;;;;0.10;0.10;;;;;;;;;;5015438;28;20045;-84
2024/03/27 10:34:41;;;;;;;0.20;0.20;;;;;;;;;;5031716;28;20045;-84
2024/03/27 10:37:07;;;;;;;0.20;0.20;;;;;;;;;;4999460;28;20052;-83
2024/03/27 10:39:33;;;;;;;0.20;0.20;;;;;;;;;;4998805;28;20049;-84
2024/03/27 10:41:59;;;;;;;0.10;0.10;;;;;;;;;;5001034;28;20061;-83
2024/03/27 10:44:25;;;;;;;0.20;0.20;;;;;;;;;;4995475;28;20050;-83
2024/03/27 10:46:52;;;;;;;0.10;0.10;;;;;;;;;;5012916;28;20041;-83
2024/03/27 10:49:18;;;;;;;0.25;0.25;;;;;;;;;;5011648;28;20057;-83
2024/03/27 10:51:44;;;;;;;0.10;0.10;;;;;;;;;;5013023;28;20045;-83
2024/03/27 10:54:10;;;;;;;0.22;0.20;;;;;;;;;;5011745;28;20045;-82
2024/03/27 10:56:36;;;;;;;0.20;0.20;;;;;;;;;;4995318;28;20060;-82
2024/03/27 10:59:02;;;;;;;0.10;0.10;;;;;;;;;;5011610;28;20046;-83
2024/03/27 11:01:28;;;;;;;0.10;0.10;;;;;;;;;;4995303;28;20050;-83
2024/03/27 11:03:54;;;;;;;0.20;0.20;;;;;;;;;;4995103;28;20083;-84
2024/03/27 11:06:21;;;;;;;0.10;0.10;;;;;;;;;;4996655;28;20042;-83
2024/03/27 11:08:47;;;;;;;0.10;0.10;;;;;;;;;;4995527;28;20397;-83
2024/03/27 11:11:17;;;;;;;0.20;0.20;;;;;;;;;;5011378;28;20041;-83
2024/03/27 11:13:46;;;;;;;0.17;0.17;;;;;;;;;;5011382;28;20046;-84
2024/03/27 11:16:12;;;;;;;0.13;0.13;;;;;;;;;;5011590;28;20034;-80
2024/03/27 11:18:38;;;;;;;0.10;0.10;;;;;;;;;;5026153;28;20210;-82
2024/03/27 11:21:04;;;;;;;0.10;0.10;;;;;;;;;;5014677;28;20045;-82
2024/03/27 11:23:30;;;;;;;0.15;0.15;;;;;;;;;;5014268;28;20041;-83
2024/03/27 11:25:57;;;;;;;0.20;0.20;;;;;;;;;;5014497;28;20076;-82
2024/03/27 11:28:23;;;;;;;0.10;0.10;;;;;;;;;;5014389;28;20048;-82
2024/03/27 11:30:49;;;;;;;0.10;0.10;;;;;;;;;;5031051;28;20037;-86
2024/03/27 11:33:15;;;;;;;0.10;0.10;;;;;;;;;;4998295;28;20037;-85
2024/03/27 11:35:41;;;;;;;0.52;0.20;;;;;;;;;;5014755;28;20460;-85
2024/03/27 11:38:07;;;;;;;0.10;0.10;;;;;;;;;;5030641;28;20152;-85
2024/03/27 11:40:34;;;;;;;0.10;0.10;;;;;;;;;;5029904;28;20045;-83
2024/03/27 11:43:02;;;;;;;0.10;0.10;;;;;;;;;;5014246;28;20048;-84
2024/03/27 11:45:28;;;;;;;0.10;0.10;;;;;;;;;;4998261;28;20168;-84
2024/03/27 11:47:54;;;;;;;0.10;0.10;;;;;;;;;;5030681;28;20136;-88
2024/03/27 11:50:21;;;;;;;0.10;0.10;;;;;;;;;;5030906;28;20049;-88
2024/03/27 11:52:48;;;;;;;0.10;0.10;;;;;;;;;;5014501;28;20049;-87
2024/03/27 11:55:14;;;;;;;0.10;0.10;;;;;;;;;;5030795;28;20049;-86
2024/03/27 11:57:40;;;;;;;0.10;0.10;;;;;;;;;;5014408;28;20049;-86
2024/03/27 12:00:07;;;;;;;0.15;0.15;;;;;;;;;;4998024;28;20083;-85
2024/03/27 12:02:33;;;;;;;0.20;0.20;;;;;;;;;;5030590;28;20051;-85
2024/03/27 12:05:04;;;;;;;0.20;0.20;;;;;;;;;;5030419;28;20048;-85
2024/03/27 12:07:30;;;;;;;0.10;0.10;;;;;;;;;;5030771;28;20385;-86
2024/03/27 12:09:56;;;;;;;0.10;0.10;;;;;;;;;;5014064;28;20037;-85
2024/03/27 12:12:22;;;;;;;0.10;0.10;;;;;;;;;;5014168;28;20034;-86
2024/03/27 12:14:47;;;;;;;0.10;0.10;;;;;;;;;;4997766;28;20045;-88
2024/03/27 12:17:13;;;;;;;0.10;0.10;;;;;;;;;;5030497;28;20068;-84
2024/03/27 12:19:39;;;;;;;0.10;0.10;;;;;;;;;;5027550;28;20128;-83
2024/03/27 12:22:06;;;;;;;0.52;0.52;;;;;;;;;;5029836;28;20444;-84
2024/03/27 12:24:32;;;;;;;0.10;0.10;;;;;;;;;;5012708;28;20045;-84
2024/03/27 12:27:02;;;;;;;0.10;0.10;;;;;;;;;;5014059;28;20041;-84
2024/03/27 12:29:29;;;;;;;0.10;0.10;;;;;;;;;;4998114;28;20041;-84
2024/03/27 12:31:55;;;;;;;0.10;0.10;;;;;;;;;;5014135;28;20041;-83
2024/03/27 12:34:21;;;;;;;0.10;0.10;;;;;;;;;;4997561;28;20049;-84
2024/03/27 12:36:47;;;;;;;0.10;0.10;;;;;;;;;;5030200;28;20049;-85
2024/03/27 12:39:14;;;;;;;0.10;0.10;;;;;;;;;;5031434;28;20045;-84
2024/03/27 12:41:40;;;;;;;1.75;0.20;;;;;;;;;;5030165;28;20125;-83
2024/03/27 12:44:06;;;;;;;0.10;0.10;;;;;;;;;;5030376;28;20041;-83
2024/03/27 12:46:32;;;;;;;0.10;0.10;;;;;;;;;;5030383;28;20041;-82
2024/03/27 12:48:58;;;;;;;0.10;0.10;;;;;;;;;;5013330;28;20516;-83
2024/03/27 12:51:24;;;;;;;0.80;0.30;;;;;;;;;;5032565;28;20045;-83
2024/03/27 12:53:50;;;;;;;0.30;0.30;;;;;;;;;;5033025;28;20395;-86
2024/03/27 12:56:16;;;;;;;0.10;0.10;;;;;;;;;;5017296;28;20037;-83
2024/03/27 12:58:42;;;;;;;0.10;0.10;;;;;;;;;;5033893;28;20055;-83
2024/03/27 13:01:08;;;;;;;0.10;0.10;;;;;;;;;;5033527;28;20476;-84
2024/03/27 13:03:34;;;;;;;0.20;0.20;;;;;;;;;;5000583;28;20046;-84
2024/03/27 13:06:00;;;;;;;0.20;0.20;;;;;;;;;;5033291;28;20049;-84
2024/03/27 13:08:26;;;;;;;0.55;0.20;;;;;;;;;;5033465;28;20061;-84
2024/03/27 13:10:52;;;;;;;0.20;0.20;;;;;;;;;;5033856;28;20077;-83
2024/03/27 13:13:18;;;;;;;0.13;0.13;;;;;;;;;;5033400;28;20568;-83
2024/03/27 13:15:44;;;;;;;0.20;0.20;;;;;;;;;;5033283;28;20045;-84
2024/03/27 13:18:10;;;;;;;0.20;0.20;;;;;;;;;;5033209;28;20396;-84
2024/03/27 13:20:36;;;;;;;0.20;0.20;;;;;;;;;;5000483;28;20044;-83
2024/03/27 13:23:02;;;;;;;0.32;0.20;;;;;;;;;;5016644;28;20127;-84
2024/03/27 13:25:28;;;;;;;0.10;0.10;;;;;;;;;;5000383;28;20037;-84
2024/03/27 13:27:54;;;;;;;0.20;0.20;;;;;;;;;;5033434;28;20044;-84
2024/03/27 13:30:20;;;;;;;0.10;0.10;;;;;;;;;;5016744;28;20073;-85
2024/03/27 13:32:46;;;;;;;0.10;0.10;;;;;;;;;;5016412;28;20077;-85
2024/03/27 13:35:12;;;;;;;0.13;0.13;;;;;;;;;;5033171;28;20076;-85
2024/03/27 13:37:38;;;;;;;0.10;0.10;;;;;;;;;;5032933;28;20045;-85
2024/03/27 13:40:05;;;;;;;0.30;0.28;;;;;;;;;;5016368;28;20084;-85
2024/03/27 13:42:31;;;;;;;0.10;0.10;;;;;;;;;;5000097;28;20519;-84
2024/03/27 13:44:57;;;;;;;0.10;0.10;;;;;;;;;;4999912;28;20041;-84
2024/03/27 13:47:23;;;;;;;0.10;0.10;;;;;;;;;;5016171;28;20057;-86
2024/03/27 13:49:49;;;;;;;0.10;0.10;;;;;;;;;;5016363;28;20477;-86
2024/03/27 13:52:15;;;;;;;0.10;0.10;;;;;;;;;;5016553;28;20086;-86
2024/03/27 13:54:41;;;;;;;0.10;0.10;;;;;;;;;;5032573;28;20060;-87
2024/03/27 13:57:08;;;;;;;0.10;0.10;;;;;;;;;;5015972;28;20073;-86
2024/03/27 13:59:34;;;;;;;0.10;0.10;;;;;;;;;;5032502;28;20048;-87
2024/03/27 14:02:00;;;;;;;0.10;0.10;;;;;;;;;;5014991;28;20099;-86
2024/03/27 14:04:28;;;;;;;0.10;0.10;;;;;;;;;;5016165;28;20045;-85
2024/03/27 14:06:54;;;;;;;0.10;0.10;;;;;;;;;;5016176;28;20068;-84
2024/03/27 14:09:20;;;;;;;0.10;0.10;;;;;;;;;;5015991;28;20055;-86
2024/03/27 14:11:46;;;;;;;0.10;0.10;;;;;;;;;;4999827;28;20084;-86
2024/03/27 14:14:12;;;;;;;0.20;0.20;;;;;;;;;;5015769;28;20511;-84
2024/03/27 14:16:38;;;;;;;0.10;0.10;;;;;;;;;;5032410;28;20077;-84
2024/03/27 14:19:05;;;;;;;0.10;0.10;;;;;;;;;;5015712;28;20048;-86
2024/03/27 14:21:31;;;;;;;0.43;0.43;;;;;;;;;;5032263;28;20104;-87
2024/03/27 14:23:57;;;;;;;0.10;0.10;;;;;;;;;;5015516;28;20049;-87
2024/03/27 14:26:23;;;;;;;0.20;0.20;;;;;;;;;;5032190;28;20112;-87
2024/03/27 14:28:49;;;;;;;0.17;0.17;;;;;;;;;;4999163;28;20128;-86
2024/03/27 14:31:15;;;;;;;0.47;0.47;;;;;;;;;;4999090;28;20034;-88
2024/03/27 14:33:41;;;;;;;0.10;0.10;;;;;;;;;;5015714;28;20052;-88
2024/03/27 14:36:08;;;;;;;0.10;0.10;;;;;;;;;;5031873;28;20045;-87